createdAt,value
2022-08-22T00:00:54.464Z,21.30
2022-08-22T00:03:01.015Z,22.30
2022-08-22T00:03:03.384Z,22.00
2022-08-22T00:03:45.697Z,21.20
2022-08-22T00:06:22.841Z,21.10
2022-08-22T00:08:52.762Z,21.10
2022-08-22T00:11:38.172Z,21.00
2022-08-22T00:14:20.056Z,21.00
2022-08-22T00:16:57.783Z,20.90
2022-08-22T00:19:52.210Z,20.90
2022-08-22T00:22:26.364Z,21.00
2022-08-22T00:25:03.408Z,21.00
2022-08-22T00:28:07.436Z,21.00
2022-08-22T00:30:59.293Z,21.10
2022-08-22T00:34:04.425Z,20.90
2022-08-22T00:36:52.646Z,20.90
2022-08-22T00:39:28.871Z,21.00
2022-08-22T00:42:32.679Z,21.00
2022-08-22T00:45:31.598Z,20.90
2022-08-22T00:48:01.517Z,20.90
2022-08-22T00:50:50.118Z,21.00
2022-08-22T00:53:36.578Z,21.00
2022-08-22T00:56:34.082Z,21.00
2022-08-22T00:59:35.571Z,20.90
2022-08-22T01:02:22.947Z,20.90
2022-08-22T01:07:38.039Z,20.70
2022-08-22T01:10:11.945Z,20.70
2022-08-22T01:12:58.729Z,20.70
2022-08-22T01:15:30.575Z,20.70
2022-08-22T01:18:00.554Z,20.70
2022-08-22T01:20:52.100Z,20.70
2022-08-22T01:23:21.992Z,20.60
2022-08-22T01:26:35.465Z,20.60
2022-08-22T01:29:27.697Z,20.60
2022-08-22T01:32:13.398Z,20.60
2022-08-22T01:34:59.550Z,20.60
2022-08-22T01:37:44.298Z,20.50
2022-08-22T01:40:54.021Z,20.50
2022-08-22T01:43:58.734Z,20.40
2022-08-22T01:46:34.218Z,20.50
2022-08-22T01:49:13.078Z,20.40
2022-08-22T01:52:08.958Z,20.40
2022-08-22T01:54:35.965Z,20.50
2022-08-22T01:57:08.272Z,20.50
2022-08-22T01:59:49.167Z,20.40
2022-08-22T02:02:19.199Z,20.40
2022-08-22T02:05:03.066Z,20.40
2022-08-22T02:07:31.904Z,20.40
2022-08-22T02:10:21.267Z,20.40
2022-08-22T02:12:58.057Z,20.40
2022-08-22T02:15:43.981Z,20.40
2022-08-22T02:18:26.737Z,20.40
2022-08-22T02:20:56.671Z,20.40
2022-08-22T02:23:42.029Z,20.40
2022-08-22T02:26:17.038Z,20.40
2022-08-22T02:29:01.149Z,20.50
2022-08-22T02:31:37.883Z,20.50
2022-08-22T02:34:27.059Z,20.40
2022-08-22T02:36:59.075Z,20.40
2022-08-22T02:39:37.199Z,20.60
2022-08-22T02:42:28.661Z,20.60
2022-08-22T02:45:15.685Z,20.60
2022-08-22T02:47:52.654Z,20.50
2022-08-22T02:50:34.564Z,20.40
2022-08-22T02:53:23.207Z,20.40
2022-08-22T02:56:11.508Z,20.40
2022-08-22T02:58:57.039Z,20.30
2022-08-22T03:01:29.981Z,20.30
2022-08-22T03:04:17.224Z,20.40
2022-08-22T03:07:13.311Z,20.40
2022-08-22T03:09:57.344Z,20.30
2022-08-22T03:12:52.752Z,20.20
2022-08-22T03:15:32.743Z,20.30
2022-08-22T03:18:05.929Z,20.30
2022-08-22T03:20:59.749Z,20.30
2022-08-22T03:23:35.702Z,20.50
2022-08-22T03:26:21.314Z,20.40
2022-08-22T03:29:03.664Z,20.40
2022-08-22T03:31:32.629Z,20.50
2022-08-22T03:34:21.441Z,20.40
2022-08-22T03:37:17.635Z,20.30
2022-08-22T03:39:44.481Z,20.20
2022-08-22T03:42:43.072Z,20.30
2022-08-22T03:45:27.586Z,20.10
2022-08-22T03:48:24.793Z,20.10
2022-08-22T03:50:59.743Z,20.20
2022-08-22T03:53:38.359Z,20.00
2022-08-22T03:56:44.432Z,20.00
2022-08-22T03:59:32.259Z,20.00
2022-08-22T04:02:43.926Z,20.20
2022-08-22T04:05:29.997Z,20.10
2022-08-22T04:08:35.742Z,20.20
2022-08-22T04:11:46.933Z,20.20
2022-08-22T04:14:40.808Z,20.20
2022-08-22T04:17:36.690Z,20.20
2022-08-22T04:20:31.646Z,20.20
2022-08-22T04:23:07.474Z,20.40
2022-08-22T04:25:41.340Z,20.40
2022-08-22T04:28:22.211Z,20.50
2022-08-22T04:31:10.293Z,20.60
2022-08-22T04:33:40.853Z,20.60
2022-08-22T04:36:27.295Z,20.80
2022-08-22T04:39:23.575Z,20.90
2022-08-22T04:42:31.150Z,20.80
2022-08-22T04:45:00.882Z,20.80
2022-08-22T04:47:32.153Z,20.80
2022-08-22T04:50:02.010Z,20.80
2022-08-22T04:52:53.158Z,20.70
2022-08-22T04:55:35.447Z,20.80
2022-08-22T04:58:37.052Z,20.90
2022-08-22T05:01:13.645Z,21.00
2022-08-22T05:03:50.944Z,21.10
2022-08-22T05:06:21.263Z,21.30
2022-08-22T05:08:53.682Z,21.50
2022-08-22T05:11:23.785Z,21.60
2022-08-22T05:14:16.721Z,21.70
2022-08-22T05:16:49.492Z,21.80
2022-08-22T05:19:29.626Z,21.70
2022-08-22T05:21:59.082Z,21.60
2022-08-22T05:24:37.562Z,21.70
2022-08-22T05:27:20.585Z,21.70
2022-08-22T05:29:50.699Z,21.70
2022-08-22T05:32:27.460Z,21.60
2022-08-22T05:34:59.512Z,21.60
2022-08-22T05:37:43.488Z,21.40
2022-08-22T05:40:19.754Z,21.40
2022-08-22T05:42:47.044Z,21.40
2022-08-22T05:45:16.904Z,21.30
2022-08-22T05:47:49.337Z,21.30
2022-08-22T05:50:16.157Z,21.30
2022-08-22T05:52:43.427Z,21.40
2022-08-22T05:55:19.674Z,21.30
2022-08-22T05:58:08.407Z,21.40
2022-08-22T06:00:40.841Z,21.40
2022-08-22T06:03:25.916Z,21.30
2022-08-22T06:05:56.546Z,21.40
2022-08-22T06:08:44.186Z,21.40
2022-08-22T06:11:36.413Z,21.30
2022-08-22T06:14:40.750Z,21.50
2022-08-22T06:17:17.174Z,21.60
2022-08-22T06:19:50.038Z,21.70
2022-08-22T06:22:32.836Z,21.70
2022-08-22T06:25:14.200Z,21.80
2022-08-22T06:27:43.339Z,21.90
2022-08-22T06:30:14.382Z,22.00
2022-08-22T06:33:00.001Z,22.00
2022-08-22T06:35:27.282Z,22.10
2022-08-22T06:37:59.462Z,22.20
2022-08-22T06:40:28.230Z,22.30
2022-08-22T06:42:55.923Z,22.40
2022-08-22T06:45:30.889Z,22.30
2022-08-22T06:48:11.506Z,22.40
2022-08-22T06:50:43.960Z,22.30
2022-08-22T06:53:18.983Z,22.40
2022-08-22T06:55:55.017Z,22.50
2022-08-22T06:58:38.782Z,22.50
2022-08-22T07:01:12.607Z,22.60
2022-08-22T07:03:50.807Z,22.70
2022-08-22T07:06:24.456Z,22.80
2022-08-22T07:08:56.083Z,22.90
2022-08-22T07:11:28.466Z,22.90
2022-08-22T07:14:01.841Z,22.90
2022-08-22T07:16:44.667Z,23.10
2022-08-22T07:19:45.990Z,23.10
2022-08-22T07:22:22.486Z,23.10
2022-08-22T07:24:54.559Z,23.10
2022-08-22T07:27:52.581Z,23.20
2022-08-22T07:30:28.239Z,23.10
2022-08-22T07:33:25.928Z,23.30
2022-08-22T07:36:01.745Z,23.40
2022-08-22T07:38:43.087Z,23.60
2022-08-22T07:41:22.517Z,23.40
2022-08-22T07:43:59.926Z,23.60
2022-08-22T07:46:32.905Z,23.80
2022-08-22T07:49:17.085Z,23.80
2022-08-22T07:51:47.486Z,24.00
2022-08-22T07:54:27.256Z,24.00
2022-08-22T07:57:06.791Z,23.90
2022-08-22T07:59:38.519Z,24.10
2022-08-22T08:02:11.428Z,24.30
2022-08-22T08:04:40.585Z,24.80
2022-08-22T08:07:11.115Z,25.40
2022-08-22T08:09:43.352Z,25.30
2022-08-22T08:12:12.115Z,25.40
2022-08-22T08:14:44.218Z,25.40
2022-08-22T08:17:19.636Z,25.50
2022-08-22T08:19:47.440Z,25.70
2022-08-22T08:22:19.592Z,26.30
2022-08-22T08:24:48.233Z,26.60
2022-08-22T08:27:41.191Z,26.40
2022-08-22T08:30:15.389Z,26.80
2022-08-22T08:32:47.818Z,26.70
2022-08-22T08:36:01.832Z,26.90
2022-08-22T08:38:29.896Z,26.80
2022-08-22T08:41:22.694Z,26.90
2022-08-22T08:44:06.922Z,26.30
2022-08-22T08:47:20.890Z,26.40
2022-08-22T08:50:24.157Z,26.60
2022-08-22T08:53:28.296Z,26.90
2022-08-22T08:56:02.221Z,27.20
2022-08-22T08:58:47.236Z,27.20
2022-08-22T09:01:33.669Z,27.20
2022-08-22T09:04:31.054Z,27.00
2022-08-22T09:07:38.190Z,27.00
2022-08-22T09:10:35.066Z,27.50
2022-08-22T09:16:45.592Z,27.90
2022-08-22T09:19:43.022Z,27.90
2022-08-22T09:22:33.409Z,28.10
2022-08-22T09:25:39.855Z,28.30
2022-08-22T09:28:28.387Z,28.80
2022-08-22T09:31:16.779Z,28.60
2022-08-22T09:34:29.961Z,28.80
2022-08-22T09:37:14.113Z,28.90
2022-08-22T09:40:03.863Z,28.70
2022-08-22T09:40:16.196Z,27.70
2022-08-22T09:42:48.790Z,28.70
2022-08-22T09:46:17.062Z,28.80
2022-08-22T09:49:06.482Z,29.10
2022-08-22T09:51:45.042Z,29.40
2022-08-22T09:54:23.937Z,30.10
2022-08-22T09:57:26.891Z,30.40
2022-08-22T10:00:22.085Z,30.60
2022-08-22T10:03:11.549Z,31.00
2022-08-22T10:05:56.882Z,29.90
2022-08-22T10:08:56.095Z,30.60
2022-08-22T10:11:30.363Z,30.50
2022-08-22T10:14:01.447Z,30.10
2022-08-22T10:16:52.112Z,30.70
2022-08-22T10:19:25.168Z,31.90
2022-08-22T10:22:29.824Z,32.30
2022-08-22T10:25:10.327Z,32.90
2022-08-22T10:27:40.335Z,32.90
2022-08-22T10:30:16.398Z,33.10
2022-08-22T10:33:09.551Z,33.60
2022-08-22T10:35:50.874Z,34.00
2022-08-22T10:38:54.653Z,33.30
2022-08-22T10:41:36.864Z,34.00
2022-08-22T10:44:24.987Z,34.40
2022-08-22T10:47:06.985Z,34.60
2022-08-22T10:49:44.728Z,35.80
2022-08-22T10:52:24.723Z,35.80
2022-08-22T10:55:15.644Z,36.90
2022-08-22T10:58:15.631Z,36.30
2022-08-22T11:00:54.366Z,35.90
2022-08-22T11:03:32.849Z,36.10
2022-08-22T11:06:06.358Z,35.90
2022-08-22T11:08:52.211Z,36.50
2022-08-22T11:11:35.941Z,36.30
2022-08-22T11:14:19.251Z,37.30
2022-08-22T11:17:31.017Z,37.00
2022-08-22T11:20:29.067Z,36.00
2022-08-22T11:23:37.688Z,36.70
2022-08-22T11:26:14.503Z,37.30
2022-08-22T11:29:14.669Z,37.80
2022-08-22T11:32:17.030Z,37.90
2022-08-22T11:35:00.608Z,36.90
2022-08-22T11:37:42.443Z,35.80
2022-08-22T11:40:38.587Z,35.80
2022-08-22T11:43:20.707Z,35.80
2022-08-22T11:45:51.786Z,34.90
2022-08-22T11:49:11.038Z,34.30
2022-08-22T11:51:59.186Z,35.60
2022-08-22T11:54:46.345Z,36.40
2022-08-22T11:57:22.072Z,35.80
2022-08-22T12:00:15.618Z,35.80
2022-08-22T12:02:55.664Z,35.00
2022-08-22T12:05:29.407Z,36.20
2022-08-22T12:08:11.390Z,35.50
2022-08-22T12:10:58.079Z,33.80
2022-08-22T12:13:43.158Z,35.00
2022-08-22T12:16:34.743Z,35.20
2022-08-22T12:19:27.357Z,35.30
2022-08-22T12:22:28.849Z,36.10
2022-08-22T12:25:33.043Z,36.30
2022-08-22T12:28:34.625Z,36.80
2022-08-22T12:31:01.452Z,36.70
2022-08-22T12:34:04.611Z,37.40
2022-08-22T12:36:47.986Z,37.20
2022-08-22T12:39:53.508Z,37.00
2022-08-22T12:42:56.417Z,36.90
2022-08-22T12:46:01.683Z,36.20
2022-08-22T12:48:47.685Z,35.80
2022-08-22T12:51:29.580Z,36.80
2022-08-22T12:54:33.472Z,35.60
2022-08-22T12:57:54.113Z,35.90
2022-08-22T13:00:36.513Z,37.10
2022-08-22T13:03:10.175Z,36.70
2022-08-22T13:05:40.803Z,36.30
2022-08-22T13:08:22.872Z,36.60
2022-08-22T13:11:01.268Z,36.50
2022-08-22T13:13:40.019Z,36.30
2022-08-22T13:16:11.793Z,35.20
2022-08-22T13:19:07.599Z,35.70
2022-08-22T13:21:39.942Z,36.20
2022-08-22T13:24:16.892Z,35.50
2022-08-22T13:26:56.957Z,35.50
2022-08-22T13:29:50.070Z,35.60
2022-08-22T13:32:32.887Z,35.90
2022-08-22T13:35:01.438Z,34.70
2022-08-22T13:37:40.138Z,33.70
2022-08-22T13:40:15.589Z,34.30
2022-08-22T13:42:50.111Z,34.50
2022-08-22T13:45:26.686Z,35.00
2022-08-22T13:48:08.762Z,35.30
2022-08-22T13:51:01.650Z,34.50
2022-08-22T13:53:43.237Z,33.30
2022-08-22T13:56:25.165Z,32.70
2022-08-22T13:58:58.937Z,33.20
2022-08-22T14:01:32.206Z,33.70
2022-08-22T14:04:26.656Z,34.30
2022-08-22T14:07:06.166Z,35.00
2022-08-22T14:09:54.320Z,35.00
2022-08-22T14:12:50.288Z,35.00
2022-08-22T14:15:24.985Z,35.40
2022-08-22T14:17:56.942Z,34.30
2022-08-22T14:20:32.569Z,35.00
2022-08-22T14:23:27.282Z,35.00
2022-08-22T14:25:55.596Z,34.70
2022-08-22T14:28:34.166Z,34.70
2022-08-22T14:31:08.483Z,33.90
2022-08-22T14:33:45.130Z,32.70
2022-08-22T14:36:18.030Z,33.10
2022-08-22T14:39:06.330Z,32.00
2022-08-22T14:41:52.970Z,32.20
2022-08-22T14:44:31.827Z,32.60
2022-08-22T14:47:04.804Z,32.60
2022-08-22T14:49:59.086Z,31.40
2022-08-22T14:52:29.608Z,31.20
2022-08-22T14:55:10.182Z,31.10
2022-08-22T14:57:44.139Z,30.90
2022-08-22T15:00:12.682Z,31.20
2022-08-22T15:02:41.120Z,31.30
2022-08-22T15:05:21.100Z,31.40
2022-08-22T15:07:59.461Z,31.30
2022-08-22T15:10:31.761Z,30.90
2022-08-22T15:13:07.880Z,30.70
2022-08-22T15:15:53.397Z,30.70
2022-08-22T15:18:28.957Z,30.60
2022-08-22T15:21:27.956Z,30.60
2022-08-22T15:24:02.428Z,30.70
2022-08-22T15:26:34.109Z,31.00
2022-08-22T15:29:20.688Z,31.00
2022-08-22T15:31:56.182Z,30.60
2022-08-22T15:34:38.383Z,30.40
2022-08-22T15:37:28.034Z,30.60
2022-08-22T15:40:11.636Z,30.40
2022-08-22T15:42:51.446Z,30.40
2022-08-22T15:45:41.334Z,30.10
2022-08-22T15:48:31.437Z,30.00
2022-08-22T15:51:10.334Z,29.90
2022-08-22T15:53:55.589Z,29.70
2022-08-22T15:56:27.507Z,29.60
2022-08-22T15:59:31.354Z,29.50
2022-08-22T16:02:41.608Z,29.50
2022-08-22T16:05:11.453Z,29.40
2022-08-22T16:07:58.756Z,29.20
2022-08-22T16:10:25.609Z,28.90
2022-08-22T16:13:11.708Z,28.50
2022-08-22T16:15:55.895Z,28.40
2022-08-22T16:18:39.776Z,28.50
2022-08-22T16:21:14.726Z,28.60
2022-08-22T16:23:56.776Z,28.60
2022-08-22T16:26:24.778Z,28.40
2022-08-22T16:29:00.759Z,28.60
2022-08-22T16:31:48.335Z,28.50
2022-08-22T16:34:18.242Z,27.80
2022-08-22T16:37:08.424Z,27.80
2022-08-22T16:39:37.603Z,27.90
2022-08-22T16:42:15.993Z,27.80
2022-08-22T16:45:05.428Z,27.90
2022-08-22T16:47:41.932Z,27.90
2022-08-22T16:50:23.709Z,28.10
2022-08-22T16:52:52.701Z,27.50
2022-08-22T16:55:31.468Z,27.40
2022-08-22T16:58:06.968Z,27.40
2022-08-22T17:00:41.840Z,27.40
2022-08-22T17:03:29.276Z,27.40
2022-08-22T17:06:14.545Z,27.50
2022-08-22T17:09:26.025Z,27.30
2022-08-22T17:12:01.491Z,27.20
2022-08-22T17:14:52.001Z,27.00
2022-08-22T17:17:34.382Z,27.00
2022-08-22T17:20:28.887Z,26.70
2022-08-22T17:23:08.768Z,26.60
2022-08-22T17:26:09.410Z,26.60
2022-08-22T17:29:05.749Z,26.40
2022-08-22T17:31:54.865Z,26.20
2022-08-22T17:34:46.676Z,26.10
2022-08-22T17:37:35.929Z,25.90
2022-08-22T17:41:05.117Z,25.70
2022-08-22T17:43:52.368Z,25.70
2022-08-22T17:46:45.073Z,25.50
2022-08-22T17:49:13.316Z,25.10
2022-08-22T17:51:53.629Z,25.10
2022-08-22T17:54:40.952Z,25.10
2022-08-22T17:57:32.605Z,25.10
2022-08-22T18:00:22.229Z,25.00
2022-08-22T18:03:16.657Z,25.00
2022-08-22T18:05:53.688Z,24.90
2022-08-22T18:09:13.309Z,24.80
2022-08-22T18:11:27.466Z,24.90
2022-08-22T18:14:05.530Z,24.70
2022-08-22T18:16:37.297Z,24.80
2022-08-22T18:19:23.740Z,24.70
2022-08-22T18:21:59.713Z,24.60
2022-08-22T18:24:49.507Z,24.60
2022-08-22T18:27:29.973Z,24.60
2022-08-22T18:30:22.413Z,24.60
2022-08-22T18:32:58.992Z,24.70
2022-08-22T18:35:55.311Z,24.60
2022-08-22T18:38:36.707Z,24.60
2022-08-22T18:41:09.700Z,24.50
2022-08-22T18:43:40.629Z,24.40
2022-08-22T18:46:28.535Z,24.40
2022-08-22T18:49:14.493Z,24.50
2022-08-22T18:51:42.471Z,24.40
2022-08-22T18:54:11.574Z,24.40
2022-08-22T18:56:51.102Z,24.40
2022-08-22T18:59:44.257Z,24.40
2022-08-22T19:02:51.184Z,24.30
2022-08-22T19:05:44.476Z,24.30
2022-08-22T19:08:26.372Z,24.30
2022-08-22T19:11:16.686Z,24.20
2022-08-22T19:13:46.612Z,24.20
2022-08-22T19:16:25.699Z,24.30
2022-08-22T19:18:57.018Z,24.10
2022-08-22T19:21:50.137Z,23.90
2022-08-22T19:24:20.101Z,23.90
2022-08-22T19:26:51.403Z,23.80
2022-08-22T19:29:18.249Z,23.60
2022-08-22T19:31:57.864Z,23.60
2022-08-22T19:34:30.855Z,23.50
2022-08-22T19:37:30.801Z,23.50
2022-08-22T19:40:05.622Z,23.50
2022-08-22T19:42:36.406Z,23.60
2022-08-22T19:45:19.595Z,23.50
2022-08-22T19:47:53.738Z,23.30
2022-08-22T19:50:21.362Z,23.10
2022-08-22T19:52:57.933Z,22.90
2022-08-22T19:55:51.971Z,23.00
2022-08-22T19:58:40.599Z,23.10
2022-08-22T20:01:33.856Z,23.00
2022-08-22T20:04:21.042Z,23.10
2022-08-22T20:07:21.172Z,23.10
2022-08-22T20:09:53.914Z,23.10
2022-08-22T20:12:29.914Z,23.20
2022-08-22T20:14:57.312Z,23.10
2022-08-22T20:17:27.109Z,22.90
2022-08-22T20:23:15.922Z,22.80
2022-08-22T20:25:49.497Z,22.70
2022-08-22T20:28:44.448Z,22.60
2022-08-22T20:31:20.912Z,22.60
2022-08-22T20:33:55.277Z,22.60
2022-08-22T20:39:01.799Z,22.60
2022-08-22T20:41:39.319Z,22.50
2022-08-22T20:44:31.638Z,22.60
2022-08-22T20:47:08.506Z,22.60
2022-08-22T20:49:51.934Z,22.50
2022-08-22T20:52:34.217Z,22.60
2022-08-22T20:55:06.991Z,22.50
2022-08-22T20:57:43.572Z,22.40
2022-08-22T21:00:15.522Z,22.30
2022-08-22T21:02:54.358Z,22.30
2022-08-22T21:05:24.508Z,22.30
2022-08-22T21:08:19.761Z,22.50
2022-08-22T21:11:24.811Z,22.60
2022-08-22T21:13:53.003Z,22.60
2022-08-22T21:16:31.679Z,22.60
2022-08-22T21:19:01.710Z,22.40
2022-08-22T21:21:32.540Z,22.40
2022-08-22T21:24:08.137Z,22.40
2022-08-22T21:26:50.194Z,22.40
2022-08-22T21:29:17.035Z,22.50
2022-08-22T21:32:05.437Z,22.70
2022-08-22T21:34:41.074Z,22.60
2022-08-22T21:37:13.672Z,22.50
2022-08-22T21:39:49.910Z,22.50
2022-08-22T21:42:27.710Z,22.50
2022-08-22T21:45:00.684Z,22.60
2022-08-22T21:47:30.615Z,22.60
2022-08-22T21:50:13.710Z,22.50
2022-08-22T21:52:44.695Z,22.30
2022-08-22T21:55:24.615Z,22.40
2022-08-22T21:58:35.097Z,22.40
2022-08-22T22:01:28.085Z,22.40
2022-08-22T22:03:55.643Z,22.30
2022-08-22T22:06:22.536Z,22.40
2022-08-22T22:08:49.810Z,22.30
2022-08-22T22:11:17.797Z,22.40
2022-08-22T22:13:45.461Z,22.30
2022-08-22T22:16:13.211Z,22.40
2022-08-22T22:18:40.794Z,22.40
2022-08-22T22:21:08.540Z,22.20
2022-08-22T22:23:35.938Z,22.20
2022-08-22T22:26:04.800Z,22.10
2022-08-22T22:28:40.126Z,22.20
2022-08-22T22:31:10.766Z,22.20
2022-08-22T22:33:40.139Z,22.20
2022-08-22T22:36:21.901Z,22.20
2022-08-22T22:38:51.731Z,22.30
2022-08-22T22:41:19.997Z,22.30
2022-08-22T22:43:47.021Z,22.20
2022-08-22T22:46:14.068Z,22.10
2022-08-22T22:48:41.050Z,22.10
2022-08-22T22:51:10.776Z,22.20
2022-08-22T22:53:42.808Z,22.20
2022-08-22T22:56:13.071Z,22.00
2022-08-22T22:58:43.206Z,22.10
2022-08-22T23:01:18.364Z,22.10
2022-08-22T23:03:46.191Z,22.00
2022-08-22T23:06:19.539Z,22.00
2022-08-22T23:08:48.126Z,22.00
2022-08-22T23:11:20.907Z,21.80
2022-08-22T23:13:48.611Z,21.90
2022-08-22T23:16:19.083Z,21.90
2022-08-22T23:18:46.748Z,21.80
2022-08-22T23:21:20.624Z,21.80
2022-08-22T23:23:48.285Z,21.80
2022-08-22T23:26:15.778Z,21.80
2022-08-22T23:28:43.534Z,21.70
2022-08-22T23:31:14.997Z,21.70
2022-08-22T23:33:42.560Z,22.40
2022-08-22T23:36:16.936Z,21.40
2022-08-22T23:38:45.046Z,21.30
2022-08-22T23:41:14.085Z,18.90
2022-08-22T23:43:43.903Z,21.30
2022-08-22T23:46:12.187Z,21.30
2022-08-22T23:48:39.120Z,21.40
2022-08-22T23:51:06.590Z,21.60
2022-08-22T23:53:33.981Z,21.70
2022-08-22T23:56:19.862Z,21.60
2022-08-22T23:58:49.126Z,21.40
